Time;durP1;ratioP1;P1;durP2;ratioP2;P2;SDS_P1;SDS_P2;PMS_P1;PMS_P2;Temp;Humidity;BMP_temperature;BMP_pressure;BME280_temperature;BME280_humidity;BME280_pressure;Samples;Min_cycle;Max_cycle;Signal;HPM_P1;HPM_P2
2024/05/03 00:00:55;;;;;;;6.17;2.03;;;;;;;8.98;100.00;96769.81;5550137;25;20219;-60
2024/05/03 00:03:21;;;;;;;5.43;1.98;;;;;;;9.00;100.00;96769.75;5583351;25;20242;-59
2024/05/03 00:05:46;;;;;;;6.17;2.10;;;;;;;9.01;100.00;96774.03;5549997;25;20212;-60
2024/05/03 00:08:12;;;;;;;5.60;2.00;;;;;;;8.97;100.00;96777.69;5550059;25;20688;-59
2024/05/03 00:10:37;;;;;;;5.60;2.00;;;;;;;8.99;100.00;96778.47;5549997;25;20307;-59
2024/05/03 00:13:03;;;;;;;5.60;2.20;;;;;;;9.00;100.00;96785.31;5583175;25;20216;-60
2024/05/03 00:15:28;;;;;;;5.60;2.07;;;;;;;8.98;100.00;96772.41;5583215;25;20315;-60
2024/05/03 00:17:54;;;;;;;5.70;2.33;;;;;;;8.93;100.00;96778.72;5549820;25;20846;-60
2024/05/03 00:22:26;;;;;;;6.25;1.95;;;;;;;8.95;100.00;96779.50;5583082;25;20631;-60
2024/05/03 00:24:52;;;;;;;8.47;2.30;;;;;;;9.00;100.00;96782.72;5545675;25;20225;-60
2024/05/03 00:27:18;;;;;;;6.17;2.20;;;;;;;8.92;100.00;96775.31;5545692;25;20213;-61
2024/05/03 00:29:45;;;;;;;6.28;2.10;;;;;;;8.93;100.00;96779.59;5545766;25;20212;-60
2024/05/03 00:32:11;;;;;;;5.40;1.90;;;;;;;8.95;100.00;96782.09;5543717;25;20588;-59
2024/05/03 00:34:40;;;;;;;7.35;2.20;;;;;;;9.02;100.00;96770.53;5545641;25;20604;-60
2024/05/03 00:37:05;;;;;;;5.60;1.98;;;;;;;9.06;100.00;96773.81;5545497;25;20218;-61
2024/05/03 00:39:31;;;;;;;5.40;1.90;;;;;;;8.96;100.00;96760.47;5543885;25;20257;-60
2024/05/03 00:41:57;;;;;;;5.70;2.17;;;;;;;8.95;100.00;96774.31;5543844;25;20224;-60
2024/05/03 00:46:24;;;;;;;5.60;2.03;;;;;;;8.94;100.00;96778.66;5621264;25;20605;-61
2024/05/03 00:48:51;;;;;;;6.17;2.00;;;;;;;8.93;100.00;96776.13;5583297;25;20224;-60
2024/05/03 00:51:18;;;;;;;5.38;1.90;;;;;;;8.94;100.00;96783.84;5583327;25;20276;-61
2024/05/03 00:53:43;;;;;;;5.70;1.90;;;;;;;8.92;100.00;96782.25;5583252;25;20212;-60
2024/05/03 00:56:11;;;;;;;5.87;2.10;;;;;;;8.95;100.00;96779.50;5550016;25;20577;-60
2024/05/03 00:58:38;;;;;;;5.30;1.80;;;;;;;8.93;100.00;96778.72;5549838;25;20628;-60
2024/05/03 01:01:04;;;;;;;5.70;1.90;;;;;;;8.93;100.00;96776.13;5583285;25;20220;-61
2024/05/03 01:03:30;;;;;;;5.60;1.98;;;;;;;8.89;100.00;96784.97;5549936;25;20212;-61
2024/05/03 01:05:55;;;;;;;7.87;2.10;;;;;;;8.92;100.00;96792.59;5549888;25;20251;-60
2024/05/03 01:10:22;;;;;;;5.70;1.95;;;;;;;8.88;100.00;96784.13;5582978;25;20527;-60
2024/05/03 01:12:47;;;;;;;5.63;2.10;;;;;;;8.88;100.00;96788.47;5543793;25;20316;-60
2024/05/03 01:15:13;;;;;;;5.37;1.80;;;;;;;8.86;100.00;96792.88;5545677;25;20225;-60
2024/05/03 01:17:38;;;;;;;5.60;2.00;;;;;;;8.91;100.00;96781.38;5543962;25;20237;-62
2024/05/03 01:20:05;;;;;;;5.33;1.90;;;;;;;8.79;100.00;96788.00;5543968;25;20217;-60
2024/05/03 01:22:38;;;;;;;5.30;1.70;;;;;;;8.78;100.00;96793.25;5543772;25;20243;-61
2024/05/03 01:25:03;;;;;;;5.30;1.80;;;;;;;8.71;100.00;96804.78;5543923;25;20221;-61
2024/05/03 01:27:29;;;;;;;5.40;1.83;;;;;;;8.75;100.00;96809.75;5545397;25;20255;-61
2024/05/03 01:29:55;;;;;;;5.53;2.00;;;;;;;8.67;100.00;96806.69;5545438;25;20430;-61
2024/05/03 01:34:19;;;;;;;5.88;1.80;;;;;;;8.71;100.00;96813.38;5621017;25;20582;-60
2024/05/03 01:36:45;;;;;;;5.50;2.00;;;;;;;8.67;100.00;96813.63;5583218;25;20218;-60
2024/05/03 01:39:10;;;;;;;5.37;1.97;;;;;;;8.65;100.00;96819.69;5583190;25;20258;-60
2024/05/03 01:41:36;;;;;;;5.40;1.80;;;;;;;8.64;100.00;96825.78;5583483;25;20772;-60
2024/05/03 01:44:04;;;;;;;5.33;1.90;;;;;;;8.67;100.00;96834.31;5550139;25;20668;-60
2024/05/03 01:46:30;;;;;;;5.38;1.80;;;;;;;8.69;100.00;96835.91;5583097;25;20483;-60
2024/05/03 01:48:55;;;;;;;5.30;1.90;;;;;;;8.71;100.00;96843.63;5583104;25;20215;-61
2024/05/03 01:51:21;;;;;;;5.40;1.80;;;;;;;8.72;100.00;96850.50;5583028;25;20690;-61
2024/05/03 01:53:46;;;;;;;5.43;1.90;;;;;;;8.71;100.00;96847.03;5582992;25;20212;-61
2024/05/03 01:58:18;;;;;;;6.57;1.95;;;;;;;8.73;100.00;96858.19;5435572;26;20574;-61
2024/05/03 02:00:44;;;;;;;5.50;2.07;;;;;;;8.73;100.00;96853.00;5434316;26;20253;-60
2024/05/03 02:03:10;;;;;;;5.20;1.70;;;;;;;8.72;100.00;96866.00;5434416;26;20227;-60
2024/05/03 02:05:35;;;;;;;5.50;2.07;;;;;;;8.73;100.00;96863.38;5434404;26;20227;-60
2024/05/03 02:08:01;;;;;;;5.50;1.80;;;;;;;8.76;100.00;96864.97;5436064;26;20326;-61
2024/05/03 02:10:26;;;;;;;6.20;2.00;;;;;;;8.72;100.00;96864.25;5434353;26;20441;-61
2024/05/03 02:12:52;;;;;;;6.87;2.10;;;;;;;8.71;100.00;96865.16;5434250;26;20660;-60
2024/05/03 02:15:18;;;;;;;5.57;2.10;;;;;;;8.76;100.00;96864.97;5435943;26;20215;-60
2024/05/03 02:17:43;;;;;;;5.47;2.00;;;;;;;8.77;100.00;96869.25;5433977;26;20231;-61
2024/05/03 02:22:15;;;;;;;5.25;1.73;;;;;;;8.80;100.00;96869.09;5621109;25;20569;-61
2024/05/03 02:24:40;;;;;;;5.23;1.97;;;;;;;8.77;100.00;96864.06;5583602;25;20553;-61
2024/05/03 02:27:06;;;;;;;5.30;1.80;;;;;;;8.77;100.00;96877.84;5550213;25;20223;-61
2024/05/03 02:29:31;;;;;;;5.27;1.70;;;;;;;8.72;100.00;96877.19;5550065;25;20219;-61
2024/05/03 02:31:57;;;;;;;5.43;1.93;;;;;;;8.76;100.00;96876.16;5583325;25;20266;-61
2024/05/03 02:34:22;;;;;;;5.30;1.83;;;;;;;8.74;100.00;96884.91;5550027;25;20259;-61
2024/05/03 02:36:48;;;;;;;5.37;1.90;;;;;;;8.72;100.00;96887.56;5583026;25;20219;-60
2024/05/03 02:39:13;;;;;;;5.20;1.60;;;;;;;8.69;100.00;96892.84;5549936;25;20254;-60
2024/05/03 02:41:39;;;;;;;5.27;1.80;;;;;;;8.72;100.00;96897.09;5583159;25;20212;-61
2024/05/03 02:46:19;;;;;;;5.25;1.77;;;;;;;8.68;100.00;96895.50;5507210;25;20630;-61
2024/05/03 02:48:45;;;;;;;5.33;1.80;;;;;;;8.67;100.00;96905.03;5471916;26;20235;-61
2024/05/03 02:51:10;;;;;;;5.30;1.90;;;;;;;8.67;100.00;96906.78;5470251;26;20242;-61
2024/05/03 02:53:36;;;;;;;5.23;1.80;;;;;;;8.72;100.00;96903.09;5470187;26;20226;-62
2024/05/03 02:56:01;;;;;;;5.33;1.90;;;;;;;8.74;100.00;96897.84;5469998;26;20691;-61
2024/05/03 02:58:27;;;;;;;5.20;1.80;;;;;;;8.70;100.00;96894.56;5470183;26;20327;-60
2024/05/03 03:00:53;;;;;;;5.30;1.80;;;;;;;8.69;100.00;96900.63;5469976;26;20238;-61
2024/05/03 03:03:18;;;;;;;5.37;1.90;;;;;;;8.69;100.00;96900.63;5471710;26;20220;-61
2024/05/03 03:05:44;;;;;;;5.37;1.90;;;;;;;8.71;100.00;96892.81;5469893;26;20226;-61
2024/05/03 03:10:12;;;;;;;5.43;1.92;;;;;;;8.68;100.00;96890.34;5621324;25;20520;-61
2024/05/03 03:12:41;;;;;;;5.22;1.88;;;;;;;8.66;100.00;96887.84;5550040;25;20252;-61
2024/05/03 03:15:07;;;;;;;5.50;1.90;;;;;;;8.67;100.00;96894.69;5550098;25;20225;-61
2024/05/03 03:17:32;;;;;;;5.40;2.13;;;;;;;8.67;100.00;96886.09;5550119;25;20286;-61
2024/05/03 03:19:58;;;;;;;5.70;2.20;;;;;;;8.63;100.00;96893.16;5583109;25;20216;-61
2024/05/03 03:22:26;;;;;;;5.50;2.00;;;;;;;8.66;100.00;96877.50;5583101;25;20259;-61
2024/05/03 03:24:52;;;;;;;5.57;2.13;;;;;;;8.68;100.00;96882.56;5583108;25;20225;-62
2024/05/03 03:27:18;;;;;;;6.68;2.10;;;;;;;8.62;100.00;96886.28;5583037;25;20323;-61
2024/05/03 03:29:44;;;;;;;5.50;1.73;;;;;;;8.57;100.00;96886.50;5550049;25;20220;-61
2024/05/03 03:34:14;;;;;;;5.72;1.90;;;;;;;8.58;100.00;96890.75;5621248;25;20631;-61
2024/05/03 03:36:40;;;;;;;5.90;2.00;;;;;;;8.48;100.00;96904.16;5550192;25;20677;-61
2024/05/03 03:39:06;;;;;;;5.80;2.00;;;;;;;8.43;100.00;96907.78;5583129;25;20312;-61
2024/05/03 03:41:31;;;;;;;5.27;1.80;;;;;;;8.43;100.00;96912.97;5583281;25;20431;-61
2024/05/03 03:43:57;;;;;;;5.43;2.13;;;;;;;8.50;100.00;96912.72;5550619;25;20218;-61
2024/05/03 03:46:22;;;;;;;5.40;1.90;;;;;;;8.39;100.00;96920.91;5550116;25;20267;-61
2024/05/03 03:48:48;;;;;;;5.53;1.70;;;;;;;8.40;100.00;96923.44;5583256;25;20556;-61
2024/05/03 03:51:14;;;;;;;5.63;2.00;;;;;;;8.41;100.00;96927.69;5583144;25;20663;-61
2024/05/03 03:53:40;;;;;;;6.10;1.90;;;;;;;8.45;100.00;96926.66;5583053;25;20218;-62
2024/05/03 03:58:06;;;;;;;7.83;2.10;;;;;;;8.41;100.00;96919.94;5444385;25;2761074;-61
2024/05/03 04:00:32;;;;;;;6.20;2.15;;;;;;;8.42;100.00;96926.81;5506731;26;20279;-61
2024/05/03 04:02:59;;;;;;;5.30;2.00;;;;;;;8.35;100.00;96925.38;5508446;26;20675;-61
2024/05/03 04:05:24;;;;;;;5.70;2.00;;;;;;;8.39;100.00;96937.25;5506712;26;20215;-61
2024/05/03 04:07:50;;;;;;;5.20;1.90;;;;;;;8.39;100.00;96939.84;5506669;26;20605;-61
2024/05/03 04:10:15;;;;;;;5.40;2.10;;;;;;;8.43;100.00;96944.00;5506800;26;20226;-61
2024/05/03 04:12:41;;;;;;;5.30;1.90;;;;;;;8.41;100.00;96948.38;5508456;26;20215;-61
2024/05/03 04:15:07;;;;;;;6.17;2.10;;;;;;;8.40;100.00;96949.31;5506371;26;20249;-61
2024/05/03 04:17:32;;;;;;;5.47;1.97;;;;;;;8.39;100.00;96947.63;5508313;25;20686;-61
2024/05/03 04:22:04;;;;;;;6.00;1.90;;;;;;;8.32;100.00;96960.88;5582948;25;20868;-61
2024/05/03 04:24:31;;;;;;;5.50;1.90;;;;;;;8.40;100.00;96964.84;5545702;25;20320;-61
2024/05/03 04:26:56;;;;;;;5.38;1.80;;;;;;;8.38;100.00;96976.13;5543860;25;20259;-60
2024/05/03 04:29:22;;;;;;;5.40;2.00;;;;;;;8.40;100.00;96971.72;5543857;25;20588;-60
2024/05/03 04:31:47;;;;;;;5.47;2.00;;;;;;;8.40;100.00;96984.66;5544060;25;20220;-61
2024/05/03 04:34:13;;;;;;;5.70;1.90;;;;;;;8.41;100.00;96982.03;5543953;25;20238;-62
2024/05/03 04:36:38;;;;;;;5.50;1.93;;;;;;;8.44;100.00;96991.41;5543889;25;20250;-61
2024/05/03 04:39:04;;;;;;;6.43;2.00;;;;;;;8.49;100.00;96997.25;5543645;25;20220;-61
2024/05/03 04:41:32;;;;;;;5.33;2.00;;;;;;;8.51;100.00;97007.53;5543584;25;20220;-61
2024/05/03 04:46:03;;;;;;;5.70;1.90;;;;;;;8.59;100.00;97010.66;5583043;25;20370;-60
2024/05/03 04:48:29;;;;;;;5.60;2.35;;;;;;;8.65;100.00;97005.22;5545661;25;20316;-61
2024/05/03 04:50:55;;;;;;;5.63;2.03;;;;;;;8.75;100.00;97006.50;5543877;25;20232;-61
2024/05/03 04:53:21;;;;;;;5.35;1.90;;;;;;;8.79;100.00;97005.47;5545734;25;20216;-62
2024/05/03 04:55:47;;;;;;;5.30;1.90;;;;;;;8.83;100.00;97008.75;5544106;25;20221;-61
2024/05/03 04:58:12;;;;;;;5.40;1.90;;;;;;;8.86;100.00;97010.38;5543818;25;20235;-61
2024/05/03 05:00:38;;;;;;;5.40;2.00;;;;;;;8.91;100.00;97004.06;5545446;25;20210;-62
2024/05/03 05:03:03;;;;;;;5.50;2.00;;;;;;;8.99;100.00;97009.78;5545438;25;20257;-62
2024/05/03 05:05:29;;;;;;;5.57;2.13;;;;;;;8.96;100.00;97006.47;5545350;25;20213;-61
2024/05/03 05:10:00;;;;;;;5.50;1.90;;;;;;;8.90;100.00;97015.34;5583108;25;20371;-61
2024/05/03 05:12:26;;;;;;;5.43;2.03;;;;;;;8.88;100.00;97012.00;5543868;25;20227;-61
2024/05/03 05:14:52;;;;;;;5.50;2.00;;;;;;;8.99;100.00;97009.78;5543808;25;20249;-62
2024/05/03 05:17:17;;;;;;;5.37;2.03;;;;;;;8.92;100.00;97005.78;5545788;25;20219;-61
2024/05/03 05:19:44;;;;;;;7.00;2.23;;;;;;;8.92;100.00;97015.31;5545687;25;20215;-61
2024/05/03 05:22:12;;;;;;;5.45;1.90;;;;;;;8.97;100.00;97016.78;5543832;25;20218;-61
2024/05/03 05:24:39;;;;;;;5.28;1.92;;;;;;;9.06;100.00;97020.72;5545464;25;20227;-61
2024/05/03 05:27:06;;;;;;;7.35;2.10;;;;;;;9.08;100.00;97029.25;5545428;25;20223;-62
2024/05/03 05:29:31;;;;;;;5.47;2.20;;;;;;;9.10;100.00;97030.03;5543579;25;20698;-62
2024/05/03 05:33:58;;;;;;;6.85;2.10;;;;;;;9.06;100.00;97030.22;5582983;25;20519;-62
2024/05/03 05:36:27;;;;;;;5.90;2.10;;;;;;;8.88;100.00;97042.22;5543894;25;20736;-61
2024/05/03 05:38:57;;;;;;;5.45;2.10;;;;;;;8.97;100.00;97041.84;5545894;25;20213;-61
2024/05/03 05:41:23;;;;;;;5.40;2.00;;;;;;;8.96;100.00;97055.69;5543852;25;20704;-61
2024/05/03 05:43:49;;;;;;;5.68;2.30;;;;;;;9.01;100.00;97056.34;5543945;25;20221;-62
2024/05/03 05:46:15;;;;;;;5.70;2.22;;;;;;;9.05;100.00;97054.44;5543752;25;20220;-62
2024/05/03 05:48:40;;;;;;;5.70;2.47;;;;;;;9.09;100.00;97050.81;5543747;25;20573;-63
2024/05/03 05:51:06;;;;;;;6.43;2.60;;;;;;;9.16;100.00;97042.69;5543704;25;20320;-63
2024/05/03 05:53:33;;;;;;;6.00;2.53;;;;;;;9.20;100.00;97049.44;5543641;25;20221;-63
2024/05/03 05:57:58;;;;;;;5.80;2.30;;;;;;;9.15;100.00;97056.56;5582877;25;20781;-63
2024/05/03 06:00:23;;;;;;;5.80;2.38;;;;;;;9.17;100.00;97059.09;5513126;25;20669;-63
2024/05/03 06:02:51;;;;;;;6.33;2.73;;;;;;;9.09;100.00;97056.81;5545697;25;20213;-63
2024/05/03 06:05:17;;;;;;;5.80;2.40;;;;;;;9.26;100.00;97057.84;5512862;25;20247;-64
2024/05/03 06:07:46;;;;;;;7.50;2.70;;;;;;;9.18;100.00;97053.84;5512693;25;20225;-64
2024/05/03 06:10:13;;;;;;;6.45;2.60;;;;;;;9.28;100.00;97056.88;5545518;25;20276;-64
2024/05/03 06:12:42;;;;;;;7.05;2.60;;;;;;;9.27;100.00;97056.94;5545474;25;20213;-65
2024/05/03 06:15:09;;;;;;;5.75;2.40;;;;;;;9.27;100.00;97059.53;5512637;25;20545;-65
2024/05/03 06:17:35;;;;;;;6.28;2.42;;;;;;;9.41;100.00;97064.94;5512505;25;20264;-64
2024/05/03 06:21:54;;;;;;;5.78;2.40;;;;;;;9.40;100.00;97065.84;5582936;25;20447;-64
2024/05/03 06:24:20;;;;;;;5.97;2.60;;;;;;;9.45;100.00;97063.88;5513062;25;20225;-65
2024/05/03 06:26:47;;;;;;;6.80;2.80;;;;;;;9.23;100.00;97072.59;5545583;25;20213;-65
2024/05/03 06:29:13;;;;;;;10.90;3.45;;;;;;;9.17;100.00;97061.69;5512854;25;20705;-64
2024/05/03 06:31:39;;;;;;;5.95;2.50;;;;;;;9.30;100.00;97074.94;5545486;25;20213;-64
2024/05/03 06:34:05;;;;;;;5.97;2.53;;;;;;;9.43;100.00;97075.25;5545436;25;20301;-64
2024/05/03 06:36:33;;;;;;;5.75;2.25;;;;;;;9.40;100.00;97076.22;5512835;25;20229;-64
2024/05/03 06:39:00;;;;;;;5.70;2.20;;;;;;;9.36;100.00;97080.69;5512733;25;20268;-64
2024/05/03 06:41:26;;;;;;;6.30;2.33;;;;;;;9.48;100.00;97081.91;5545330;25;20601;-64
2024/05/03 06:45:53;;;;;;;5.90;2.63;;;;;;;9.37;100.00;97092.75;5583169;25;20718;-64
2024/05/03 06:48:18;;;;;;;5.83;2.50;;;;;;;9.46;100.00;97091.50;5545874;25;20213;-64
2024/05/03 06:50:44;;;;;;;6.23;2.60;;;;;;;9.28;100.00;97090.56;5543805;25;20300;-64
2024/05/03 06:53:09;;;;;;;6.87;2.80;;;;;;;9.22;100.00;97101.16;5545573;25;20284;-64
2024/05/03 06:55:35;;;;;;;8.40;3.60;;;;;;;9.42;100.00;97095.13;5545721;25;20317;-64
2024/05/03 06:58:00;;;;;;;5.60;2.30;;;;;;;9.43;100.00;97101.16;5543739;25;20681;-64
2024/05/03 07:00:26;;;;;;;8.47;2.47;;;;;;;9.57;100.00;97098.81;5545681;25;20581;-63
2024/05/03 07:02:51;;;;;;;6.00;2.50;;;;;;;9.57;100.00;97098.81;5543901;25;20286;-64
2024/05/03 07:05:17;;;;;;;7.23;2.60;;;;;;;9.48;100.00;97092.28;5545425;25;20213;-64
2024/05/03 07:09:51;;;;;;;6.10;2.40;;;;;;;9.48;100.00;97106.97;5583061;25;20397;-64
2024/05/03 07:12:16;;;;;;;6.30;2.50;;;;;;;9.36;100.00;97103.19;5543963;25;20670;-64
2024/05/03 07:14:42;;;;;;;6.00;2.50;;;;;;;9.46;100.00;97112.25;5543767;25;20217;-64
2024/05/03 07:17:07;;;;;;;6.67;2.97;;;;;;;9.26;100.00;97117.44;5543896;25;20216;-64
2024/05/03 07:19:33;;;;;;;5.83;2.63;;;;;;;9.26;100.00;97115.69;5545627;25;20217;-64
2024/05/03 07:21:59;;;;;;;7.30;2.67;;;;;;;9.29;100.00;97110.38;5545496;25;20685;-64
2024/05/03 07:24:24;;;;;;;8.43;2.60;;;;;;;9.34;100.00;97117.94;5545746;25;20703;-64
2024/05/03 07:26:50;;;;;;;6.47;2.67;;;;;;;9.36;100.00;97116.13;5545399;25;20217;-64
2024/05/03 07:29:17;;;;;;;7.03;2.73;;;;;;;9.38;100.00;97114.31;5543592;25;20733;-64
2024/05/03 07:33:49;;;;;;;7.47;2.70;;;;;;;9.60;100.00;97119.38;5582951;25;20318;-63
2024/05/03 07:36:14;;;;;;;6.50;2.57;;;;;;;9.95;100.00;97129.91;5545713;25;20213;-63
2024/05/03 07:38:40;;;;;;;6.60;3.60;;;;;;;10.38;100.00;97128.78;5545613;25;20217;-64
2024/05/03 07:41:05;;;;;;;6.30;3.23;;;;;;;10.54;100.00;97122.88;5543813;25;20267;-64
2024/05/03 07:43:32;;;;;;;6.57;2.60;;;;;;;10.59;100.00;97117.44;5543829;25;20221;-63
2024/05/03 07:45:58;;;;;;;7.47;2.85;;;;;;;10.57;100.00;97123.56;5543924;25;20221;-64
2024/05/03 07:48:24;;;;;;;6.85;2.65;;;;;;;10.01;100.00;97129.66;5545871;25;20209;-63
2024/05/03 07:50:49;;;;;;;5.90;2.50;;;;;;;10.17;100.00;97124.59;5545464;25;20282;-64
2024/05/03 07:53:15;;;;;;;6.83;2.60;;;;;;;10.53;100.00;97137.63;5543652;25;20248;-64
2024/05/03 07:57:47;;;;;;;6.10;2.78;;;;;;;10.65;100.00;97145.72;5582929;25;20318;-63
2024/05/03 08:00:12;;;;;;;6.43;2.60;;;;;;;10.79;100.00;97135.50;5543863;25;20220;-64
2024/05/03 08:02:38;;;;;;;5.93;2.63;;;;;;;11.07;100.00;97141.91;5545616;25;20601;-64
2024/05/03 08:05:04;;;;;;;7.77;2.60;;;;;;;11.11;100.00;97138.25;5543901;25;20221;-64
2024/05/03 08:07:30;;;;;;;6.53;2.70;;;;;;;11.43;100.00;97143.56;5545852;25;20316;-65
2024/05/03 08:09:56;;;;;;;6.95;2.60;;;;;;;11.37;100.00;97147.34;5545939;25;20217;-66
2024/05/03 08:12:21;;;;;;;5.80;2.63;;;;;;;11.55;100.00;97148.16;5543783;25;20308;-65
2024/05/03 08:14:48;;;;;;;6.03;2.50;;;;;;;11.29;100.00;97145.09;5545431;25;20210;-65
2024/05/03 08:17:13;;;;;;;5.70;2.53;;;;;;;11.20;100.00;97152.53;5543571;25;20225;-65
2024/05/03 08:21:45;;;;;;;6.38;2.38;;;;;;;11.33;100.00;97148.38;5545306;25;21097;-65
2024/05/03 08:24:11;;;;;;;5.80;2.67;;;;;;;11.17;100.00;97155.28;5476216;26;20291;-65
2024/05/03 08:26:36;;;;;;;5.90;2.60;;;;;;;11.30;100.00;97148.56;5508483;26;21007;-66
2024/05/03 08:29:02;;;;;;;6.00;2.60;;;;;;;11.90;100.00;97143.72;5508350;26;20256;-67
2024/05/03 08:31:28;;;;;;;5.73;2.33;;;;;;;12.10;100.00;97142.63;5508469;26;20226;-65
2024/05/03 08:33:54;;;;;;;8.00;3.22;;;;;;;12.51;100.00;97151.69;5476102;26;20258;-66
2024/05/03 08:36:19;;;;;;;8.00;2.43;;;;;;;12.04;100.00;97153.41;5476027;26;20655;-66
2024/05/03 08:38:45;;;;;;;6.10;2.20;;;;;;;12.09;100.00;97146.16;5475974;26;20226;-66
2024/05/03 08:41:11;;;;;;;5.57;2.30;;;;;;;12.02;100.00;97146.56;5475772;26;20218;-67
2024/05/03 08:45:59;;;;;;;5.60;2.60;;;;;;;12.42;100.00;97139.19;5545318;25;20307;-63
2024/05/03 08:48:27;;;;;;;7.90;2.88;;;;;;;12.80;100.00;97150.03;5506870;26;20666;-64
2024/05/03 08:50:57;;;;;;;6.28;2.53;;;;;;;13.02;100.00;97133.19;5508541;25;20214;-65
2024/05/03 08:53:35;;;;;;;6.93;2.97;;;;;;;13.05;100.00;97139.06;5506686;26;20234;-65
2024/05/03 08:56:01;;;;;;;5.70;2.50;;;;;;;13.22;100.00;97139.84;5506785;26;20266;-65
2024/05/03 08:58:27;;;;;;;5.80;2.50;;;;;;;13.15;100.00;97148.94;5506756;26;20218;-66
2024/05/03 09:00:57;;;;;;;6.03;2.55;;;;;;;12.92;100.00;97150.28;5508539;25;20222;-66
2024/05/03 09:03:23;;;;;;;6.13;2.65;;;;;;;12.87;100.00;97155.75;5506583;26;20222;-65
2024/05/03 09:05:49;;;;;;;5.50;2.33;;;;;;;13.10;100.00;97156.19;5508258;25;20309;-64
2024/05/03 09:09:50;;;;;;;6.32;2.60;;;;;;;13.63;100.00;97155.66;5582907;25;20318;-66
2024/05/03 09:12:16;;;;;;;6.55;2.50;;;;;;;13.37;100.00;97152.03;5545789;25;20216;-64
2024/05/03 09:14:42;;;;;;;5.90;3.22;;;;;;;13.18;100.00;97151.38;5543865;25;20232;-66
2024/05/03 09:17:07;;;;;;;7.30;2.63;;;;;;;13.10;100.00;97154.44;5545665;25;20318;-65
2024/05/03 09:19:33;;;;;;;5.60;2.30;;;;;;;13.25;100.00;97161.34;5543952;25;20545;-65
2024/05/03 09:21:58;;;;;;;6.23;2.60;;;;;;;13.11;100.00;97160.47;5545801;25;20213;-66
2024/05/03 09:24:24;;;;;;;6.23;2.63;;;;;;;12.26;100.00;97175.63;5545579;25;20665;-65
2024/05/03 09:26:49;;;;;;;5.83;2.70;;;;;;;12.30;100.00;97161.53;5543920;25;20213;-64
2024/05/03 09:29:19;;;;;;;5.77;2.50;;;;;;;13.13;100.00;97156.00;5543512;25;20221;-65
2024/05/03 09:33:40;;;;;;;5.53;2.55;;;;;;;13.54;100.00;97160.59;5508235;25;20650;-65
2024/05/03 09:36:06;;;;;;;6.35;2.50;;;;;;;13.74;100.00;97156.78;5508496;25;20219;-65
2024/05/03 09:38:32;;;;;;;5.50;2.35;;;;;;;13.89;100.00;97155.00;5506877;26;20219;-66
2024/05/03 09:40:59;;;;;;;5.53;2.43;;;;;;;13.65;100.00;97152.13;5508561;25;20214;-66
2024/05/03 09:43:24;;;;;;;5.82;2.42;;;;;;;13.51;100.00;97153.78;5508558;25;20265;-65
2024/05/03 09:45:51;;;;;;;5.73;2.37;;;;;;;12.50;100.00;97160.44;5508397;25;20218;-64
2024/05/03 09:48:27;;;;;;;5.90;2.58;;;;;;;12.75;100.00;97159.06;5506597;26;20230;-66
2024/05/03 09:50:55;;;;;;;5.78;2.63;;;;;;;12.47;100.00;97164.03;5508396;25;20218;-65
2024/05/03 09:53:24;;;;;;;6.00;2.67;;;;;;;11.84;100.00;97166.56;5508220;25;20248;-63
2024/05/03 09:57:37;;;;;;;5.65;2.40;;;;;;;12.35;100.00;97171.69;5583057;25;20528;-64
2024/05/03 10:00:04;;;;;;;6.80;2.70;;;;;;;12.55;100.00;97178.41;5544048;25;20575;-65
2024/05/03 10:02:45;;;;;;;5.40;2.40;;;;;;;12.96;100.00;97180.47;5545648;25;20548;-64
2024/05/03 10:05:11;;;;;;;6.35;2.60;;;;;;;12.72;100.00;97172.28;5543911;25;20228;-64
2024/05/03 10:07:39;;;;;;;6.75;2.30;;;;;;;12.77;100.00;97183.25;5545623;25;20213;-65
2024/05/03 10:10:05;;;;;;;5.88;2.50;;;;;;;12.79;100.00;97179.66;5543987;25;20258;-65
2024/05/03 10:12:32;;;;;;;5.75;2.45;;;;;;;12.99;100.00;97180.28;5543733;25;20681;-65
2024/05/03 10:14:58;;;;;;;5.60;2.50;;;;;;;13.35;100.00;97172.13;5545438;25;20281;-65
2024/05/03 10:17:23;;;;;;;5.35;2.50;;;;;;;12.72;100.00;97182.69;5545472;25;20217;-64
2024/05/03 10:21:37;;;;;;;6.63;2.80;;;;;;;12.76;100.00;97181.59;5583342;25;20310;-64
2024/05/03 10:24:04;;;;;;;5.65;2.60;;;;;;;12.44;100.00;97184.22;5544150;25;20304;-64
2024/05/03 10:26:40;;;;;;;6.70;2.70;;;;;;;12.64;100.00;97176.16;5545676;25;20593;-65
2024/05/03 10:29:06;;;;;;;5.75;2.53;;;;;;;12.14;100.00;97190.16;5544386;25;20216;-62
2024/05/03 10:31:43;;;;;;;6.07;2.53;;;;;;;12.61;100.00;97191.09;5543797;25;20224;-66
2024/05/03 10:34:17;;;;;;;6.15;2.65;;;;;;;12.71;100.00;97194.03;5543843;25;20941;-66
2024/05/03 10:36:43;;;;;;;5.70;2.50;;;;;;;12.57;100.00;97194.78;5545437;25;20228;-66
2024/05/03 10:39:08;;;;;;;6.07;2.77;;;;;;;12.40;100.00;97196.56;5543718;25;20224;-67
2024/05/03 10:41:34;;;;;;;5.60;2.70;;;;;;;12.16;100.00;97206.53;5545478;25;20217;-65
2024/05/03 10:45:33;;;;;;;7.65;2.88;;;;;;;12.09;100.00;97210.38;5495588;25;1295025;-66
2024/05/03 10:48:03;;;;;;;5.70;2.70;;;;;;;12.29;100.00;97212.75;5506717;26;20265;-67
2024/05/03 10:51:09;;;;;;;5.93;2.97;;;;;;;12.13;100.00;97211.91;5506801;26;20226;-65
2024/05/03 10:53:35;;;;;;;6.45;2.90;;;;;;;12.28;100.00;97211.09;5506783;26;20222;-65
2024/05/03 10:56:01;;;;;;;6.13;2.67;;;;;;;12.13;100.00;97219.72;5508672;25;20729;-66
2024/05/03 10:58:27;;;;;;;6.00;2.67;;;;;;;12.25;100.00;97219.06;5508572;25;20230;-65
2024/05/03 11:00:56;;;;;;;6.07;2.92;;;;;;;12.71;100.00;97217.47;5506576;26;20226;-65
2024/05/03 11:03:23;;;;;;;6.45;2.80;;;;;;;12.70;100.00;97226.22;5508193;25;20218;-65
2024/05/03 11:05:49;;;;;;;7.65;3.10;;;;;;;12.60;100.00;97216.28;5506485;26;20249;-68
2024/05/03 11:09:29;;;;;;;6.57;2.80;;;;;;;12.46;100.00;97227.50;5580402;25;20651;-66
2024/05/03 11:11:56;;;;;;;6.37;2.60;;;;;;;12.54;100.00;97226.22;5545842;25;20220;-67
2024/05/03 11:14:23;;;;;;;6.28;2.70;;;;;;;12.47;100.00;97225.72;5543803;25;20529;-66
2024/05/03 11:16:49;;;;;;;7.28;3.00;;;;;;;12.49;100.00;97229.91;5543841;25;20221;-66
2024/05/03 11:19:16;;;;;;;7.70;3.10;;;;;;;12.44;100.00;97228.47;5545681;25;20269;-66
2024/05/03 11:21:54;;;;;;;6.13;2.97;;;;;;;12.21;100.00;97233.16;5543765;25;20721;-66
2024/05/03 11:24:30;;;;;;;6.25;2.88;;;;;;;11.87;100.00;97231.47;5545518;25;20263;-66
2024/05/03 11:27:04;;;;;;;6.07;2.83;;;;;;;11.90;100.00;97236.56;5543550;25;20566;-65
2024/05/03 11:29:33;;;;;;;7.35;2.70;;;;;;;12.20;100.00;97234.06;5545451;25;20217;-66
2024/05/03 11:33:46;;;;;;;6.60;2.90;;;;;;;12.36;100.00;97235.88;5582462;25;20528;-66
2024/05/03 11:36:12;;;;;;;7.28;2.83;;;;;;;12.49;100.00;97237.72;5543957;25;20221;-65
2024/05/03 11:38:38;;;;;;;5.70;2.57;;;;;;;12.51;100.00;97237.63;5544053;25;20252;-66
2024/05/03 11:41:03;;;;;;;5.90;2.80;;;;;;;12.38;100.00;97232.25;5543860;25;20225;-66
2024/05/03 11:43:29;;;;;;;6.30;3.20;;;;;;;12.64;100.00;97245.63;5545505;25;20446;-66
2024/05/03 11:45:54;;;;;;;7.60;2.80;;;;;;;12.55;100.00;97240.91;5543739;25;20225;-66
2024/05/03 11:48:20;;;;;;;6.80;2.90;;;;;;;12.57;100.00;97250.34;5543714;25;20229;-66
2024/05/03 11:50:45;;;;;;;6.03;2.83;;;;;;;12.48;100.00;97249.06;5543765;25;20232;-66
2024/05/03 11:53:11;;;;;;;7.00;2.83;;;;;;;12.43;100.00;97255.47;5545633;25;20217;-66
2024/05/03 11:57:23;;;;;;;5.75;2.80;;;;;;;12.16;100.00;97247.34;5582968;25;20933;-66
2024/05/03 11:59:48;;;;;;;6.47;3.67;;;;;;;12.15;100.00;97256.94;5543888;25;20308;-67
2024/05/03 12:02:14;;;;;;;6.00;2.77;;;;;;;12.25;100.00;97255.50;5545475;25;20225;-67
2024/05/03 12:04:40;;;;;;;7.47;3.27;;;;;;;12.26;100.00;97245.94;5544044;25;20225;-67
2024/05/03 12:07:05;;;;;;;6.00;2.90;;;;;;;12.68;100.00;97250.59;5543802;25;20212;-66
2024/05/03 12:09:31;;;;;;;5.80;2.90;;;;;;;12.33;100.00;97259.47;5543837;25;20213;-66
2024/05/03 12:12:00;;;;;;;8.37;2.97;;;;;;;12.48;100.00;97254.28;5543762;25;20556;-66
2024/05/03 12:14:26;;;;;;;6.32;2.90;;;;;;;12.60;100.00;97251.94;5545480;25;20217;-66
2024/05/03 12:16:52;;;;;;;7.03;2.85;;;;;;;12.96;100.00;97243.84;5543568;25;20689;-66
2024/05/03 12:21:20;;;;;;;6.30;3.10;;;;;;;12.83;100.00;97242.88;5582854;25;20326;-65
2024/05/03 12:23:46;;;;;;;6.33;3.10;;;;;;;12.18;100.00;97243.75;5543983;25;20628;-68
2024/05/03 12:26:15;;;;;;;5.70;2.80;;;;;;;12.31;100.00;97249.13;5545801;25;20213;-66